createdAt,value
2017-12-31T00:01:08.353Z,0
2017-12-31T00:02:17.130Z,0
2017-12-31T00:03:25.812Z,0
2017-12-31T00:04:34.511Z,0
2017-12-31T00:05:43.490Z,0
2017-12-31T00:06:52.444Z,0
2017-12-31T00:08:01.637Z,0
2017-12-31T00:09:10.853Z,0
2017-12-31T00:10:20.061Z,0
2017-12-31T00:11:28.749Z,0
2017-12-31T00:12:37.711Z,0
2017-12-31T00:13:46.675Z,0
2017-12-31T00:14:55.638Z,0
2017-12-31T00:16:04.843Z,0
2017-12-31T00:17:13.795Z,0
2017-12-31T00:18:22.473Z,0
2017-12-31T00:19:31.163Z,0
2017-12-31T00:20:40.410Z,0
2017-12-31T00:21:49.363Z,0
2017-12-31T00:22:58.304Z,0
2017-12-31T00:24:07.242Z,0
2017-12-31T00:25:16.470Z,0
2017-12-31T00:26:25.412Z,0
2017-12-31T00:27:34.872Z,0
2017-12-31T00:28:43.816Z,0
2017-12-31T00:29:52.766Z,0
2017-12-31T00:31:02.267Z,0
2017-12-31T00:32:11.725Z,0
2017-12-31T00:33:20.408Z,0
2017-12-31T00:34:29.364Z,0
2017-12-31T00:35:38.078Z,0
2017-12-31T00:36:47.015Z,0
2017-12-31T00:37:56.007Z,0
2017-12-31T00:39:05.472Z,0
2017-12-31T00:40:14.415Z,0
2017-12-31T00:41:23.100Z,0
2017-12-31T00:42:32.562Z,0
2017-12-31T00:43:41.503Z,0
2017-12-31T00:44:50.447Z,0
2017-12-31T00:45:59.922Z,0
2017-12-31T00:47:08.613Z,0
2017-12-31T00:48:17.564Z,0
2017-12-31T00:49:26.530Z,0
2017-12-31T00:50:35.746Z,0
2017-12-31T00:51:44.437Z,0
2017-12-31T00:52:54.175Z,0
2017-12-31T00:54:03.135Z,0
2017-12-31T00:55:11.817Z,0
2017-12-31T00:56:20.760Z,0
2017-12-31T00:57:29.981Z,0
2017-12-31T00:58:38.932Z,0
2017-12-31T00:59:47.877Z,0
2017-12-31T01:00:56.834Z,0
2017-12-31T01:02:05.526Z,0
2017-12-31T01:03:14.469Z,0
2017-12-31T01:04:23.695Z,0
2017-12-31T01:05:32.433Z,0
2017-12-31T01:06:41.664Z,0
2017-12-31T01:07:51.126Z,0
2017-12-31T01:09:00.074Z,0
2017-12-31T01:10:08.754Z,0
2017-12-31T01:11:17.969Z,0
2017-12-31T01:12:26.665Z,0
2017-12-31T01:13:35.900Z,0
2017-12-31T01:14:45.366Z,0
2017-12-31T01:15:54.060Z,0
2017-12-31T01:17:02.993Z,0
2017-12-31T01:18:12.215Z,0
2017-12-31T01:19:21.434Z,0
2017-12-31T01:20:30.382Z,0
2017-12-31T01:21:39.575Z,0
2017-12-31T01:22:48.518Z,0
2017-12-31T01:23:57.202Z,0
2017-12-31T01:25:06.675Z,0
2017-12-31T01:26:15.385Z,0
2017-12-31T01:27:24.333Z,0
2017-12-31T01:28:33.297Z,0
2017-12-31T01:29:42.517Z,0
2017-12-31T01:30:51.735Z,0
2017-12-31T01:32:00.687Z,0
2017-12-31T01:33:09.901Z,0
2017-12-31T01:34:18.822Z,0
2017-12-31T01:35:27.775Z,0
2017-12-31T01:36:36.719Z,0
2017-12-31T01:37:45.401Z,0
2017-12-31T01:38:54.095Z,0
2017-12-31T01:40:02.771Z,0
2017-12-31T01:41:11.728Z,0
2017-12-31T01:42:20.408Z,0
2017-12-31T01:43:29.366Z,0
2017-12-31T01:44:38.831Z,0
2017-12-31T01:45:48.312Z,0
2017-12-31T01:46:57.261Z,0
2017-12-31T01:48:06.216Z,0
2017-12-31T01:49:15.168Z,0
2017-12-31T01:50:24.106Z,0
2017-12-31T01:51:32.859Z,0
2017-12-31T01:52:41.552Z,0
2017-12-31T01:53:50.492Z,0
2017-12-31T01:54:59.197Z,0
2017-12-31T01:56:08.411Z,0
2017-12-31T01:57:17.353Z,0
2017-12-31T01:58:26.323Z,0
2017-12-31T01:59:35.001Z,0
2017-12-31T02:00:43.962Z,0
2017-12-31T02:01:52.905Z,0
2017-12-31T02:03:01.855Z,0
2017-12-31T02:04:11.065Z,0
2017-12-31T02:05:20.534Z,0
2017-12-31T02:06:29.730Z,0
2017-12-31T02:07:38.688Z,0
2017-12-31T02:08:47.907Z,0
2017-12-31T02:09:56.854Z,0
2017-12-31T02:11:06.079Z,0
2017-12-31T02:12:15.541Z,0
2017-12-31T02:13:24.483Z,0
2017-12-31T02:14:33.427Z,0
2017-12-31T02:15:42.371Z,0
2017-12-31T02:16:51.572Z,0
2017-12-31T02:18:00.519Z,0
2017-12-31T02:19:09.247Z,0
2017-12-31T02:20:18.516Z,0
2017-12-31T02:21:27.464Z,0
2017-12-31T02:22:36.132Z,0
2017-12-31T02:24:16.905Z,0
2017-12-31T02:25:26.157Z,0
2017-12-31T02:26:35.428Z,0
2017-12-31T02:27:44.101Z,0
2017-12-31T02:28:52.772Z,0
2017-12-31T02:30:01.461Z,0
2017-12-31T02:31:10.399Z,0
2017-12-31T02:32:19.618Z,0
2017-12-31T02:33:28.821Z,0
2017-12-31T02:34:37.758Z,0
2017-12-31T02:35:47.209Z,0
2017-12-31T02:36:56.398Z,0
2017-12-31T02:38:05.599Z,0
2017-12-31T02:39:14.540Z,0
2017-12-31T02:40:23.525Z,0
2017-12-31T02:41:32.464Z,0
2017-12-31T02:42:41.663Z,0
2017-12-31T02:43:50.596Z,0
2017-12-31T02:44:59.813Z,0
2017-12-31T02:46:09.285Z,0
2017-12-31T02:47:18.474Z,0
2017-12-31T02:48:27.408Z,0
2017-12-31T02:49:37.028Z,0
2017-12-31T02:50:45.976Z,0
2017-12-31T02:51:54.657Z,0
2017-12-31T02:53:03.327Z,0
2017-12-31T02:54:12.529Z,0
2017-12-31T02:55:21.475Z,0
2017-12-31T02:56:30.190Z,0
2017-12-31T02:57:39.984Z,0
2017-12-31T02:58:49.703Z,0
2017-12-31T02:59:58.648Z,0
2017-12-31T03:01:07.326Z,0
2017-12-31T03:02:16.272Z,0
2017-12-31T03:03:25.464Z,0
2017-12-31T03:04:34.664Z,0
2017-12-31T03:05:43.355Z,0
2017-12-31T03:06:52.546Z,0
2017-12-31T03:08:01.742Z,0
2017-12-31T03:09:10.692Z,0
2017-12-31T03:10:19.895Z,0
2017-12-31T03:11:28.836Z,0
2017-12-31T03:12:38.058Z,0
2017-12-31T03:13:46.725Z,0
2017-12-31T03:14:55.931Z,0
2017-12-31T03:16:04.874Z,0
2017-12-31T03:17:13.818Z,0
2017-12-31T03:18:22.746Z,0
2017-12-31T03:19:31.534Z,0
2017-12-31T03:20:40.754Z,0
2017-12-31T03:21:49.430Z,0
2017-12-31T03:22:58.895Z,0
2017-12-31T03:24:07.570Z,0
2017-12-31T03:25:16.501Z,0
2017-12-31T03:26:25.439Z,0
2017-12-31T03:27:34.904Z,0
2017-12-31T03:28:44.110Z,0
2017-12-31T03:29:53.321Z,0
2017-12-31T03:31:02.274Z,0
2017-12-31T03:32:11.737Z,0
2017-12-31T03:33:20.940Z,0
2017-12-31T03:34:30.145Z,0
2017-12-31T03:35:39.347Z,0
2017-12-31T03:36:48.292Z,0
2017-12-31T03:37:57.487Z,0
2017-12-31T03:39:06.421Z,0
2017-12-31T03:40:15.101Z,0
2017-12-31T03:41:24.577Z,0
2017-12-31T03:42:33.538Z,0
2017-12-31T03:43:42.732Z,0
2017-12-31T03:44:51.942Z,0
2017-12-31T03:46:00.935Z,0
2017-12-31T03:47:10.398Z,0
2017-12-31T03:48:19.854Z,0
2017-12-31T03:49:28.793Z,0
2017-12-31T03:50:37.992Z,0
2017-12-31T03:51:47.186Z,0
2017-12-31T03:52:55.855Z,0
2017-12-31T03:54:05.042Z,0
2017-12-31T03:55:13.981Z,0
2017-12-31T03:56:22.918Z,0
2017-12-31T03:57:32.371Z,0
2017-12-31T03:58:41.303Z,0
2017-12-31T03:59:49.986Z,0
2017-12-31T04:00:58.918Z,0
2017-12-31T04:02:08.387Z,0
2017-12-31T04:03:17.322Z,0
2017-12-31T04:04:26.005Z,0
2017-12-31T04:05:34.680Z,0
2017-12-31T04:06:43.884Z,0
2017-12-31T04:07:52.555Z,0
2017-12-31T04:09:01.493Z,0
2017-12-31T04:10:10.163Z,0
2017-12-31T04:11:19.099Z,0
2017-12-31T04:12:28.028Z,0
2017-12-31T04:13:36.707Z,0
2017-12-31T04:14:45.647Z,0
2017-12-31T04:15:54.321Z,0
2017-12-31T04:17:03.806Z,0
2017-12-31T04:18:12.757Z,0
2017-12-31T04:19:21.689Z,0
2017-12-31T04:20:30.896Z,0
2017-12-31T04:21:39.843Z,0
2017-12-31T04:22:49.292Z,0
2017-12-31T04:23:58.004Z,0
2017-12-31T04:25:07.479Z,0
2017-12-31T04:26:16.148Z,0
2017-12-31T04:27:25.090Z,0
2017-12-31T04:28:34.025Z,0
2017-12-31T04:29:42.965Z,0
2017-12-31T04:30:51.649Z,0
2017-12-31T04:32:00.359Z,0
2017-12-31T04:33:09.292Z,0
2017-12-31T04:34:18.233Z,0
2017-12-31T04:35:26.910Z,0
2017-12-31T04:36:36.124Z,0
2017-12-31T04:37:45.324Z,0
2017-12-31T04:38:54.526Z,0
2017-12-31T04:40:03.476Z,0
2017-12-31T04:41:12.147Z,0
2017-12-31T04:42:21.082Z,0
2017-12-31T04:43:30.007Z,0
2017-12-31T04:44:39.243Z,0
2017-12-31T04:45:48.204Z,0
2017-12-31T04:46:56.876Z,0
2017-12-31T04:48:05.544Z,0
2017-12-31T04:49:14.999Z,0
2017-12-31T04:50:23.937Z,0
2017-12-31T04:51:32.873Z,0
2017-12-31T04:52:41.801Z,0
2017-12-31T04:53:51.013Z,0
2017-12-31T04:54:59.952Z,0
2017-12-31T04:56:08.894Z,0
2017-12-31T04:57:17.832Z,0
2017-12-31T04:58:26.778Z,0
2017-12-31T04:59:36.236Z,0
2017-12-31T05:00:45.190Z,0
2017-12-31T05:01:54.664Z,0
2017-12-31T05:03:03.864Z,0
2017-12-31T05:04:12.536Z,0
2017-12-31T05:05:21.217Z,0
2017-12-31T05:06:29.895Z,0
2017-12-31T05:07:38.833Z,0
2017-12-31T05:08:47.777Z,0
2017-12-31T05:09:56.726Z,0
2017-12-31T05:11:06.464Z,0
2017-12-31T05:12:15.914Z,0
2017-12-31T05:13:25.383Z,0
2017-12-31T05:14:34.843Z,0
2017-12-31T05:15:44.295Z,0
2017-12-31T05:16:53.241Z,0
2017-12-31T05:18:01.916Z,0
2017-12-31T05:19:10.849Z,0
2017-12-31T05:20:20.038Z,0
2017-12-31T05:21:28.721Z,0
2017-12-31T05:22:37.654Z,0
2017-12-31T05:23:46.598Z,0
2017-12-31T05:24:55.818Z,0
2017-12-31T05:26:05.029Z,0
2017-12-31T05:27:13.968Z,0
2017-12-31T05:28:23.177Z,0
2017-12-31T05:29:32.367Z,0
2017-12-31T05:30:41.320Z,0
2017-12-31T05:31:50.792Z,0
2017-12-31T05:32:59.729Z,0
2017-12-31T05:34:08.417Z,0
2017-12-31T05:35:17.353Z,0
2017-12-31T05:36:26.536Z,0
2017-12-31T05:37:35.751Z,0
2017-12-31T05:38:44.961Z,0
2017-12-31T05:39:54.168Z,0
2017-12-31T05:41:03.106Z,0
2017-12-31T05:42:11.778Z,0
2017-12-31T05:43:20.491Z,0
2017-12-31T05:44:29.435Z,0
2017-12-31T05:45:38.133Z,0
2017-12-31T05:46:47.074Z,0
2017-12-31T05:47:56.310Z,0
2017-12-31T05:49:04.985Z,0
2017-12-31T05:50:13.666Z,0
2017-12-31T05:51:22.873Z,0
2017-12-31T05:52:31.814Z,0
2017-12-31T05:53:40.760Z,0
2017-12-31T05:54:49.689Z,0
2017-12-31T05:55:59.153Z,0
2017-12-31T05:57:07.903Z,0
2017-12-31T05:58:17.407Z,0
2017-12-31T05:59:26.093Z,0
2017-12-31T06:00:35.039Z,0
2017-12-31T06:01:43.715Z,0
2017-12-31T06:02:52.655Z,0
2017-12-31T06:04:01.864Z,0
2017-12-31T06:05:11.325Z,0
2017-12-31T06:06:20.266Z,0
2017-12-31T06:07:28.941Z,0
2017-12-31T06:08:37.626Z,0
2017-12-31T06:09:47.116Z,0
2017-12-31T06:10:56.046Z,0
2017-12-31T06:12:05.255Z,0
2017-12-31T06:13:14.208Z,0
2017-12-31T06:14:23.146Z,0
2017-12-31T06:15:32.072Z,0
2017-12-31T06:16:41.065Z,0
2017-12-31T06:17:49.771Z,0
2017-12-31T06:18:58.719Z,0
2017-12-31T06:20:07.662Z,0
2017-12-31T06:21:17.120Z,0
2017-12-31T06:22:26.068Z,0
2017-12-31T06:23:35.019Z,0
2017-12-31T06:24:44.228Z,0
2017-12-31T06:25:53.186Z,0
2017-12-31T06:27:02.142Z,0
2017-12-31T06:28:11.337Z,0
2017-12-31T06:29:20.538Z,0
2017-12-31T06:30:29.477Z,0
2017-12-31T06:31:38.432Z,0
2017-12-31T06:32:47.393Z,0
2017-12-31T06:33:56.349Z,0
2017-12-31T06:35:05.557Z,0
2017-12-31T06:36:15.211Z,0
2017-12-31T06:37:23.892Z,0
2017-12-31T06:38:32.832Z,0
2017-12-31T06:39:41.765Z,0
2017-12-31T06:40:50.723Z,0
2017-12-31T06:41:59.679Z,0
2017-12-31T06:43:08.628Z,0
2017-12-31T06:44:17.558Z,0
2017-12-31T06:45:26.521Z,0
2017-12-31T06:46:35.451Z,0
2017-12-31T06:47:44.899Z,0
2017-12-31T06:48:54.101Z,0
2017-12-31T06:50:03.301Z,0
2017-12-31T06:51:12.528Z,0
2017-12-31T06:52:21.482Z,0
2017-12-31T06:53:30.684Z,0
2017-12-31T06:54:39.626Z,0
2017-12-31T06:55:49.353Z,0
2017-12-31T06:56:59.138Z,0
2017-12-31T06:58:08.331Z,0
2017-12-31T06:59:17.523Z,0
2017-12-31T07:00:26.738Z,0
2017-12-31T07:01:35.668Z,0
2017-12-31T07:02:44.342Z,0
2017-12-31T07:03:53.398Z,0
2017-12-31T07:05:02.591Z,0
2017-12-31T07:06:11.276Z,0
2017-12-31T07:07:20.516Z,0
2017-12-31T07:08:29.451Z,0
2017-12-31T07:09:38.401Z,0
2017-12-31T07:10:47.077Z,0
2017-12-31T07:11:56.039Z,4
2017-12-31T07:13:04.986Z,0
2017-12-31T07:14:13.932Z,4
2017-12-31T07:15:23.396Z,4
2017-12-31T07:16:32.084Z,4
2017-12-31T07:17:41.038Z,4
2017-12-31T07:18:49.705Z,8
2017-12-31T07:19:58.721Z,8
2017-12-31T07:21:07.662Z,12
2017-12-31T07:22:16.341Z,12
2017-12-31T07:23:25.282Z,16
2017-12-31T07:24:34.263Z,16
2017-12-31T07:25:43.480Z,16
2017-12-31T07:26:52.160Z,20
2017-12-31T07:28:00.855Z,24
2017-12-31T07:29:09.536Z,24
2017-12-31T07:30:19.000Z,32
2017-12-31T07:31:28.209Z,40
2017-12-31T07:32:37.678Z,40
2017-12-31T07:33:46.360Z,44
2017-12-31T07:34:55.298Z,48
2017-12-31T07:36:04.249Z,52
2017-12-31T07:37:13.445Z,60
2017-12-31T07:38:22.393Z,64
2017-12-31T07:39:31.065Z,72
2017-12-31T07:40:40.256Z,76
2017-12-31T07:41:49.195Z,88
2017-12-31T07:42:58.146Z,88
2017-12-31T07:44:07.128Z,88
2017-12-31T07:45:16.337Z,76
2017-12-31T07:46:25.280Z,72
2017-12-31T07:47:34.484Z,72
2017-12-31T07:48:43.702Z,68
2017-12-31T07:49:52.376Z,72
2017-12-31T07:51:01.046Z,88
2017-12-31T07:52:10.503Z,104
2017-12-31T07:53:19.449Z,128
2017-12-31T07:54:28.425Z,140
2017-12-31T07:55:37.109Z,144
2017-12-31T07:56:46.046Z,152
2017-12-31T07:57:54.790Z,164
2017-12-31T07:59:03.742Z,188
2017-12-31T08:00:12.425Z,216
2017-12-31T08:01:21.909Z,244
2017-12-31T08:02:30.847Z,292
2017-12-31T08:03:40.042Z,320
2017-12-31T08:04:49.530Z,324
2017-12-31T08:05:58.474Z,348
2017-12-31T08:07:07.689Z,308
2017-12-31T08:08:16.623Z,252
2017-12-31T08:09:25.858Z,252
2017-12-31T08:10:34.925Z,232
2017-12-31T08:11:43.798Z,192
2017-12-31T08:12:52.585Z,180
2017-12-31T08:14:01.585Z,144
2017-12-31T08:15:11.189Z,124
2017-12-31T08:16:20.999Z,128
2017-12-31T08:17:29.958Z,124
2017-12-31T08:18:39.905Z,120
2017-12-31T08:19:48.975Z,132
2017-12-31T08:20:57.913Z,172
2017-12-31T08:22:08.338Z,244
2017-12-31T08:23:18.641Z,312
2017-12-31T08:24:27.379Z,344
2017-12-31T08:25:36.380Z,376
2017-12-31T08:26:46.302Z,368
2017-12-31T08:27:55.127Z,332
2017-12-31T08:29:05.993Z,424
2017-12-31T08:30:15.890Z,500
2017-12-31T08:31:25.842Z,572
2017-12-31T08:32:36.154Z,460
2017-12-31T08:33:45.479Z,360
2017-12-31T08:34:54.151Z,300
2017-12-31T08:36:03.085Z,280
2017-12-31T08:37:12.035Z,240
2017-12-31T08:38:21.247Z,176
2017-12-31T08:39:30.189Z,136
2017-12-31T08:40:39.164Z,112
2017-12-31T08:41:48.639Z,132
2017-12-31T08:42:57.579Z,132
2017-12-31T08:44:06.290Z,112
2017-12-31T08:45:15.502Z,104
2017-12-31T08:46:24.185Z,112
2017-12-31T08:47:33.426Z,124
2017-12-31T08:48:42.306Z,132
2017-12-31T08:49:51.775Z,124
2017-12-31T08:51:00.718Z,132
2017-12-31T08:52:09.703Z,140
2017-12-31T08:53:19.203Z,152
2017-12-31T08:54:28.163Z,96
2017-12-31T08:55:37.117Z,128
2017-12-31T08:56:46.093Z,168
2017-12-31T08:57:55.362Z,168
2017-12-31T08:59:04.570Z,140
2017-12-31T09:00:13.933Z,140
2017-12-31T09:01:23.134Z,152
2017-12-31T09:02:32.082Z,140
2017-12-31T09:03:40.755Z,144
2017-12-31T09:04:49.433Z,164
2017-12-31T09:05:59.216Z,180
2017-12-31T09:07:08.474Z,144
2017-12-31T09:08:17.552Z,156
2017-12-31T09:09:27.323Z,148
2017-12-31T09:10:36.015Z,208
2017-12-31T09:11:45.208Z,212
2017-12-31T09:12:54.137Z,312
2017-12-31T09:14:02.824Z,316
2017-12-31T09:15:11.788Z,376
2017-12-31T09:16:20.483Z,380
2017-12-31T09:17:29.691Z,448
2017-12-31T09:18:38.893Z,548
2017-12-31T09:19:47.828Z,556
2017-12-31T09:20:57.058Z,556
2017-12-31T09:22:05.765Z,572
2017-12-31T09:23:15.257Z,680
2017-12-31T09:24:23.971Z,536
2017-12-31T09:25:32.925Z,404
2017-12-31T09:26:41.627Z,376
2017-12-31T09:27:50.569Z,320
2017-12-31T09:28:59.843Z,324
2017-12-31T09:30:08.522Z,296
2017-12-31T09:31:17.713Z,280
2017-12-31T09:32:27.046Z,244
2017-12-31T09:33:36.192Z,240
2017-12-31T09:34:45.134Z,264
2017-12-31T09:35:54.586Z,356
2017-12-31T09:37:03.861Z,416
2017-12-31T09:38:13.314Z,364
2017-12-31T09:39:22.297Z,420
2017-12-31T09:40:31.752Z,364
2017-12-31T09:41:40.698Z,264
2017-12-31T09:42:49.929Z,304
2017-12-31T09:43:59.418Z,364
2017-12-31T09:45:08.400Z,372
2017-12-31T09:46:17.909Z,412
2017-12-31T09:47:27.372Z,316
2017-12-31T09:48:36.656Z,392
2017-12-31T09:49:45.606Z,352
2017-12-31T09:50:54.827Z,316
2017-12-31T09:52:03.875Z,348
2017-12-31T09:53:12.551Z,596
2017-12-31T09:54:21.333Z,656
2017-12-31T09:55:30.368Z,784
2017-12-31T09:56:39.379Z,704
2017-12-31T09:57:48.390Z,720
2017-12-31T09:58:57.069Z,528
2017-12-31T10:00:06.005Z,484
2017-12-31T10:01:15.229Z,468
2017-12-31T10:02:24.183Z,432
2017-12-31T10:03:33.011Z,440
2017-12-31T10:04:41.979Z,464
2017-12-31T10:05:50.663Z,440
2017-12-31T10:06:59.888Z,472
2017-12-31T10:08:08.840Z,516
2017-12-31T10:09:18.312Z,436
2017-12-31T10:10:28.040Z,468
2017-12-31T10:11:36.980Z,476
2017-12-31T10:12:45.911Z,488
2017-12-31T10:13:55.125Z,440
2017-12-31T10:15:03.802Z,632
2017-12-31T10:16:12.742Z,620
2017-12-31T10:17:21.676Z,456
2017-12-31T10:18:30.866Z,348
2017-12-31T10:19:40.069Z,356
2017-12-31T10:20:48.757Z,268
2017-12-31T10:21:57.443Z,288
2017-12-31T10:23:06.664Z,240
2017-12-31T10:24:15.345Z,244
2017-12-31T10:25:24.291Z,240
2017-12-31T10:26:33.243Z,208
2017-12-31T10:27:42.444Z,156
2017-12-31T10:28:51.381Z,204
2017-12-31T10:30:00.335Z,312
2017-12-31T10:31:09.288Z,328
2017-12-31T10:32:17.980Z,284
2017-12-31T10:33:26.926Z,288
2017-12-31T10:34:36.393Z,308
2017-12-31T10:35:45.108Z,316
2017-12-31T10:36:53.797Z,304
2017-12-31T10:38:02.560Z,284
2017-12-31T10:39:11.490Z,228
2017-12-31T10:40:20.719Z,284
2017-12-31T10:41:30.475Z,352
2017-12-31T10:42:40.211Z,412
2017-12-31T10:43:49.685Z,440
2017-12-31T10:44:58.925Z,548
2017-12-31T10:46:08.875Z,448
2017-12-31T10:47:19.129Z,324
2017-12-31T10:48:28.613Z,400
2017-12-31T10:49:37.293Z,548
2017-12-31T10:50:46.495Z,464
2017-12-31T10:51:56.535Z,480
2017-12-31T10:53:06.074Z,388
2017-12-31T10:54:14.833Z,404
2017-12-31T10:55:24.657Z,416
2017-12-31T10:56:34.426Z,384
2017-12-31T10:57:43.796Z,384
2017-12-31T10:58:53.531Z,480
2017-12-31T11:00:02.638Z,360
2017-12-31T11:01:12.421Z,380
2017-12-31T11:02:21.145Z,360
2017-12-31T11:03:30.731Z,544
2017-12-31T11:04:40.010Z,508
2017-12-31T11:05:49.877Z,492
2017-12-31T11:06:59.522Z,592
2017-12-31T11:08:09.247Z,548
2017-12-31T11:09:18.378Z,568
2017-12-31T11:10:28.133Z,652
2017-12-31T11:11:37.441Z,640
2017-12-31T11:12:46.404Z,648
2017-12-31T11:13:55.171Z,716
2017-12-31T11:15:04.689Z,796
2017-12-31T11:16:13.637Z,1160
2017-12-31T11:17:23.316Z,1288
2017-12-31T11:18:32.654Z,1368
2017-12-31T11:19:41.877Z,1064
2017-12-31T11:20:51.000Z,976
2017-12-31T11:21:59.688Z,1064
2017-12-31T11:23:08.735Z,1084
2017-12-31T11:24:18.193Z,1112
2017-12-31T11:25:27.980Z,1104
2017-12-31T11:26:37.727Z,1124
2017-12-31T11:27:46.945Z,1148
2017-12-31T11:28:55.618Z,1120
2017-12-31T11:30:05.023Z,1252
2017-12-31T11:31:14.566Z,1184
2017-12-31T11:32:23.326Z,1304
2017-12-31T11:33:32.016Z,1316
2017-12-31T11:34:41.015Z,1328
2017-12-31T11:35:50.058Z,1336
2017-12-31T11:36:59.295Z,1240
2017-12-31T11:38:08.502Z,1156
2017-12-31T11:39:17.461Z,1180
2017-12-31T11:40:26.169Z,1228
2017-12-31T11:41:35.370Z,1276
2017-12-31T11:42:45.030Z,1244
2017-12-31T11:43:54.011Z,1180
2017-12-31T11:45:02.683Z,1196
2017-12-31T11:46:12.439Z,1212
2017-12-31T11:47:22.208Z,1148
2017-12-31T11:48:31.856Z,1156
2017-12-31T11:49:40.798Z,1116
2017-12-31T11:50:49.746Z,1100
2017-12-31T11:51:58.699Z,1136
2017-12-31T11:53:07.904Z,1084
2017-12-31T11:54:17.100Z,1120
2017-12-31T11:55:26.029Z,1196
2017-12-31T11:56:35.238Z,1156
2017-12-31T11:57:44.041Z,1080
2017-12-31T11:58:53.228Z,1132
2017-12-31T12:00:02.002Z,1100
2017-12-31T12:01:11.079Z,1092
2017-12-31T12:02:19.763Z,1096
2017-12-31T12:03:29.450Z,1160
2017-12-31T12:04:38.564Z,1260
2017-12-31T12:05:47.566Z,1312
2017-12-31T12:06:56.986Z,1328
2017-12-31T12:08:05.879Z,1272
2017-12-31T12:09:14.925Z,1196
2017-12-31T12:10:23.834Z,1184
2017-12-31T12:11:33.137Z,1152
2017-12-31T12:12:41.886Z,1132
2017-12-31T12:13:51.021Z,1076
2017-12-31T12:14:59.728Z,960
2017-12-31T12:16:08.674Z,1012
2017-12-31T12:17:17.619Z,980
2017-12-31T12:18:26.833Z,1004
2017-12-31T12:19:36.039Z,1020
2017-12-31T12:20:45.247Z,964
2017-12-31T12:21:54.193Z,940
2017-12-31T12:23:03.132Z,924
2017-12-31T12:24:12.606Z,856
2017-12-31T12:25:21.301Z,784
2017-12-31T12:26:30.230Z,656
2017-12-31T12:27:39.453Z,672
2017-12-31T12:28:48.225Z,660
2017-12-31T12:29:57.145Z,812
2017-12-31T12:31:06.087Z,896
2017-12-31T12:32:15.304Z,984
2017-12-31T12:33:24.532Z,1012
2017-12-31T12:34:33.487Z,1104
2017-12-31T12:35:42.686Z,1056
2017-12-31T12:36:51.650Z,1004
2017-12-31T12:38:00.350Z,1024
2017-12-31T12:39:09.304Z,756
2017-12-31T12:40:18.245Z,748
2017-12-31T12:41:27.451Z,564
2017-12-31T12:42:36.387Z,652
2017-12-31T12:43:45.103Z,804
2017-12-31T12:44:54.042Z,740
2017-12-31T12:46:03.275Z,652
2017-12-31T12:47:12.255Z,624
2017-12-31T12:48:21.198Z,684
2017-12-31T12:49:30.141Z,624
2017-12-31T12:50:38.823Z,676
2017-12-31T12:51:47.762Z,712
2017-12-31T12:52:56.706Z,828
2017-12-31T12:54:05.674Z,848
2017-12-31T12:55:15.146Z,844
2017-12-31T12:56:24.085Z,724
2017-12-31T12:57:32.773Z,676
2017-12-31T12:58:41.452Z,648
2017-12-31T12:59:50.127Z,572
2017-12-31T13:00:59.341Z,444
2017-12-31T13:02:08.855Z,372
2017-12-31T13:03:17.789Z,360
2017-12-31T13:04:26.736Z,468
2017-12-31T13:05:35.680Z,524
2017-12-31T13:06:44.894Z,580
2017-12-31T13:07:53.849Z,604
2017-12-31T13:09:02.526Z,628
2017-12-31T13:10:11.728Z,696
2017-12-31T13:11:20.660Z,760
2017-12-31T13:12:29.853Z,696
2017-12-31T13:13:39.052Z,712
2017-12-31T13:14:48.252Z,768
2017-12-31T13:15:57.192Z,744
2017-12-31T13:17:06.427Z,744
2017-12-31T13:18:15.396Z,724
2017-12-31T13:19:24.856Z,648
2017-12-31T13:20:33.802Z,672
2017-12-31T13:21:42.471Z,700
2017-12-31T13:22:51.433Z,700
2017-12-31T13:24:00.389Z,700
2017-12-31T13:25:09.335Z,692
2017-12-31T13:26:18.271Z,696
2017-12-31T13:27:26.964Z,688
2017-12-31T13:28:35.630Z,696
2017-12-31T13:29:44.311Z,720
2017-12-31T13:30:53.000Z,748
2017-12-31T13:32:01.684Z,776
2017-12-31T13:33:10.352Z,812
2017-12-31T13:34:19.442Z,800
2017-12-31T13:35:28.374Z,740
2017-12-31T13:36:37.565Z,688
2017-12-31T13:37:46.239Z,652
2017-12-31T13:38:55.440Z,704
2017-12-31T13:40:04.400Z,688
2017-12-31T13:41:13.608Z,544
2017-12-31T13:42:22.557Z,564
2017-12-31T13:43:32.020Z,636
2017-12-31T13:44:41.219Z,544
2017-12-31T13:45:50.150Z,600
2017-12-31T13:46:59.382Z,452
2017-12-31T13:48:08.058Z,416
2017-12-31T13:49:17.006Z,408
2017-12-31T13:50:26.477Z,484
2017-12-31T13:51:35.432Z,460
2017-12-31T13:52:44.899Z,464
2017-12-31T13:53:54.098Z,308
2017-12-31T13:55:02.782Z,328
2017-12-31T13:56:11.452Z,384
2017-12-31T13:57:20.644Z,420
2017-12-31T13:58:29.327Z,392
2017-12-31T13:59:38.284Z,304
2017-12-31T14:00:47.481Z,260
2017-12-31T14:01:56.429Z,252
2017-12-31T14:03:05.384Z,196
2017-12-31T14:04:14.075Z,152
2017-12-31T14:05:22.764Z,184
2017-12-31T14:06:31.705Z,184
2017-12-31T14:07:40.903Z,132
2017-12-31T14:08:49.593Z,148
2017-12-31T14:09:58.801Z,156
2017-12-31T14:11:07.998Z,136
2017-12-31T14:12:17.198Z,144
2017-12-31T14:13:26.147Z,132
2017-12-31T14:14:35.358Z,140
2017-12-31T14:15:44.296Z,156
2017-12-31T14:16:53.373Z,128
2017-12-31T14:18:02.575Z,128
2017-12-31T14:19:11.320Z,148
2017-12-31T14:20:19.998Z,192
2017-12-31T14:21:28.952Z,224
2017-12-31T14:22:38.412Z,200
2017-12-31T14:23:47.397Z,192
2017-12-31T14:24:56.600Z,236
2017-12-31T14:26:05.532Z,228
2017-12-31T14:27:14.214Z,232
2017-12-31T14:28:23.411Z,244
2017-12-31T14:29:32.102Z,236
2017-12-31T14:30:41.057Z,192
2017-12-31T14:31:50.033Z,172
2017-12-31T14:32:58.977Z,176
2017-12-31T14:34:07.917Z,140
2017-12-31T14:35:16.594Z,140
2017-12-31T14:36:25.788Z,100
2017-12-31T14:37:34.737Z,92
2017-12-31T14:38:44.218Z,104
2017-12-31T14:39:52.912Z,116
2017-12-31T14:41:01.855Z,116
2017-12-31T14:42:10.531Z,108
2017-12-31T14:43:19.470Z,108
2017-12-31T14:44:28.165Z,120
2017-12-31T14:45:37.102Z,116
2017-12-31T14:46:46.040Z,112
2017-12-31T14:47:54.978Z,124
2017-12-31T14:49:04.190Z,108
2017-12-31T14:50:13.125Z,120
2017-12-31T14:51:22.074Z,132
2017-12-31T14:52:31.272Z,124
2017-12-31T14:53:40.199Z,112
2017-12-31T14:54:49.148Z,96
2017-12-31T14:55:58.605Z,88
2017-12-31T14:57:07.823Z,88
2017-12-31T14:58:16.517Z,68
2017-12-31T14:59:26.185Z,72
2017-12-31T15:00:35.655Z,56
2017-12-31T15:01:44.376Z,68
2017-12-31T15:02:53.644Z,80
2017-12-31T15:04:02.673Z,72
2017-12-31T15:05:11.727Z,68
2017-12-31T15:06:20.757Z,76
2017-12-31T15:07:30.025Z,64
2017-12-31T15:08:39.303Z,68
2017-12-31T15:09:49.421Z,56
2017-12-31T15:10:58.993Z,40
2017-12-31T15:12:08.024Z,32
2017-12-31T15:13:16.771Z,32
2017-12-31T15:14:25.843Z,28
2017-12-31T15:15:35.135Z,28
2017-12-31T15:16:44.141Z,16
2017-12-31T15:17:54.320Z,20
2017-12-31T15:19:03.790Z,16
2017-12-31T15:20:12.756Z,16
2017-12-31T15:21:23.179Z,16
2017-12-31T15:22:32.227Z,12
2017-12-31T15:23:41.662Z,12
2017-12-31T15:24:50.743Z,8
2017-12-31T15:26:01.156Z,8
2017-12-31T15:27:10.502Z,8
2017-12-31T15:28:20.255Z,8
2017-12-31T15:29:29.725Z,12
2017-12-31T15:30:39.596Z,8
2017-12-31T15:31:50.258Z,8
2017-12-31T15:32:59.331Z,4
2017-12-31T15:34:08.867Z,8
2017-12-31T15:35:17.900Z,4
2017-12-31T15:36:27.379Z,8
2017-12-31T15:37:37.085Z,8
2017-12-31T15:38:47.376Z,12
2017-12-31T15:39:56.696Z,8
2017-12-31T15:41:06.050Z,8
2017-12-31T15:42:15.295Z,4
2017-12-31T15:43:24.983Z,4
2017-12-31T15:44:34.551Z,4
2017-12-31T15:45:43.805Z,4
2017-12-31T15:46:52.863Z,4
2017-12-31T15:48:02.237Z,4
2017-12-31T15:49:11.256Z,4
2017-12-31T15:50:20.285Z,4
2017-12-31T15:51:29.534Z,4
2017-12-31T15:52:38.328Z,4
2017-12-31T15:53:47.183Z,0
2017-12-31T15:54:56.553Z,0
2017-12-31T15:56:06.627Z,0
2017-12-31T15:57:16.516Z,0
2017-12-31T15:58:26.096Z,0
2017-12-31T15:59:36.732Z,0
2017-12-31T16:00:45.848Z,0
2017-12-31T16:01:55.085Z,0
2017-12-31T16:03:05.013Z,0
2017-12-31T16:04:13.906Z,0
2017-12-31T16:05:23.115Z,0
2017-12-31T16:06:32.862Z,0
2017-12-31T16:07:42.378Z,0
2017-12-31T16:08:51.391Z,0
2017-12-31T16:10:00.467Z,0
2017-12-31T16:11:09.690Z,0
2017-12-31T16:12:18.738Z,0
2017-12-31T16:13:28.329Z,0
2017-12-31T16:14:37.750Z,0
2017-12-31T16:15:46.844Z,0
2017-12-31T16:16:56.111Z,0
2017-12-31T16:18:05.720Z,0
2017-12-31T16:19:16.130Z,0
2017-12-31T16:20:26.120Z,0
2017-12-31T16:21:35.964Z,0
2017-12-31T16:22:45.427Z,0
2017-12-31T16:23:54.353Z,0
2017-12-31T16:25:04.326Z,0
2017-12-31T16:26:13.953Z,0
2017-12-31T16:27:23.008Z,0